AXM320 VNKT-VQPR
Flight info
| Callsign | AXM320 |
|---|---|
| Flight time | 0h 40m |
| Altitude | 29000 |
| Route | IGRIS1A IGRIS DCT KIMTI G348 SUBSU SUBSU1 |
| Aircraft | A320/M-SDE3FGHIRWY/LB1 |
Departure
| Time | 2025-12-29 13:59 |
|---|---|
| Airport | Tribhuvan International Airport (VNKT) |
Arrival
| Time | 2025-12-29 14:40 |
|---|---|
| Airport | Paro International Airport (VQPR) |
| Time | Latitude | Longitude | Altitude | Speed | Heading |
|---|---|---|---|---|---|
| 2025-12-29 13:23 | 27.69818 | 85.35756 | 4398 ft | 0 kts | 291° |
| 2025-12-29 13:40 | 27.69809 | 85.35780 | 4398 ft | 2 kts | 291° |
| 2025-12-29 13:41 | 27.69796 | 85.35817 | 4397 ft | 2 kts | 291° |
| 2025-12-29 13:41 | 27.69775 | 85.35844 | 4397 ft | 2 kts | 281° |
| 2025-12-29 13:41 | 27.69774 | 85.35853 | 4397 ft | 0 kts | 258° |
| 2025-12-29 13:42 | 27.69748 | 85.35836 | 4397 ft | 12 kts | 193° |
| 2025-12-29 13:43 | 27.69632 | 85.35783 | 4398 ft | 0 kts | 202° |
| 2025-12-29 13:54 | 27.69629 | 85.35781 | 4398 ft | 2 kts | 202° |
| 2025-12-29 13:54 | 27.69433 | 85.35810 | 4395 ft | 28 kts | 162° |
| 2025-12-29 13:55 | 27.68957 | 85.35583 | 4391 ft | 46 kts | 200° |
| 2025-12-29 13:55 | 27.68376 | 85.35333 | 4398 ft | 35 kts | 205° |
| 2025-12-29 13:56 | 27.68188 | 85.35244 | 4401 ft | 9 kts | 14° |
| 2025-12-29 13:56 | 27.68229 | 85.35262 | 4401 ft | 0 kts | 22° |
| 2025-12-29 13:58 | 27.68748 | 85.35500 | 4390 ft | 107 kts | 22° |
| 2025-12-29 13:59 | 27.71821 | 85.36936 | 5656 ft | 172 kts | 22° |
| 2025-12-29 13:59 | 27.72920 | 85.37580 | 6082 ft | 186 kts | 40° |
| 2025-12-29 14:00 | 27.74065 | 85.40379 | 6786 ft | 218 kts | 89° |
| 2025-12-29 14:00 | 27.73747 | 85.44086 | 7784 ft | 250 kts | 109° |
| 2025-12-29 14:01 | 27.71323 | 85.46885 | 9417 ft | 262 kts | 156° |
| 2025-12-29 14:01 | 27.67710 | 85.48610 | 10220 ft | 308 kts | 156° |
| 2025-12-29 14:01 | 27.65825 | 85.49965 | 10525 ft | 335 kts | 142° |
| 2025-12-29 14:02 | 27.62223 | 85.57187 | 12249 ft | 371 kts | 106° |
| 2025-12-29 14:03 | 27.60725 | 85.62849 | 13609 ft | 385 kts | 107° |
| 2025-12-29 14:03 | 27.59128 | 85.68718 | 14827 ft | 397 kts | 110° |
| 2025-12-29 14:04 | 27.56768 | 85.74416 | 16110 ft | 405 kts | 117° |
| 2025-12-29 14:04 | 27.54243 | 85.80130 | 17400 ft | 413 kts | 117° |
| 2025-12-29 14:05 | 27.51867 | 85.86089 | 18561 ft | 422 kts | 107° |
| 2025-12-29 14:05 | 27.50956 | 85.92651 | 19652 ft | 428 kts | 89° |
| 2025-12-29 14:05 | 27.50856 | 85.95970 | 20201 ft | 431 kts | 90° |
| 2025-12-29 14:06 | 27.50471 | 86.06253 | 21633 ft | 443 kts | 90° |
| 2025-12-29 14:07 | 27.50189 | 86.13247 | 22572 ft | 450 kts | 90° |
| 2025-12-29 14:07 | 27.49910 | 86.20301 | 23665 ft | 455 kts | 90° |
| 2025-12-29 14:08 | 27.49502 | 86.27459 | 24519 ft | 461 kts | 97° |
| 2025-12-29 14:09 | 27.46798 | 86.41772 | 26066 ft | 472 kts | 101° |
| 2025-12-29 14:11 | 27.41084 | 86.71387 | 28736 ft | 499 kts | 102° |
| 2025-12-29 14:13 | 27.35024 | 87.02363 | 29111 ft | 530 kts | 102° |
| 2025-12-29 14:15 | 27.24944 | 87.31670 | 29098 ft | 528 kts | 124° |
| 2025-12-29 14:17 | 27.09548 | 87.59544 | 29081 ft | 526 kts | 124° |
| 2025-12-29 14:19 | 26.93980 | 87.87512 | 29103 ft | 528 kts | 124° |
| 2025-12-29 14:21 | 26.78489 | 88.15201 | 29112 ft | 523 kts | 124° |
| 2025-12-29 14:23 | 26.74366 | 88.42714 | 29094 ft | 455 kts | 53° |
| 2025-12-29 14:24 | 26.85956 | 88.63886 | 29078 ft | 455 kts | 54° |
| 2025-12-29 14:27 | 27.00401 | 88.90665 | 24231 ft | 410 kts | 57° |
| 2025-12-29 14:27 | 27.04517 | 88.98989 | 22817 ft | 401 kts | 57° |
| 2025-12-29 14:28 | 27.08346 | 89.06736 | 21900 ft | 359 kts | 57° |
| 2025-12-29 14:29 | 27.10668 | 89.11403 | 21248 ft | 331 kts | 57° |
| 2025-12-29 14:29 | 27.11781 | 89.13633 | 20880 ft | 321 kts | 57° |
| 2025-12-29 14:30 | 27.14821 | 89.19756 | 20308 ft | 284 kts | 56° |
| 2025-12-29 14:30 | 27.16789 | 89.23512 | 19710 ft | 272 kts | 47° |
| 2025-12-29 14:31 | 27.19340 | 89.26421 | 19144 ft | 255 kts | 33° |
| 2025-12-29 14:31 | 27.22347 | 89.28361 | 18422 ft | 246 kts | 18° |
| 2025-12-29 14:32 | 27.25603 | 89.29307 | 17565 ft | 240 kts | 7° |
| 2025-12-29 14:32 | 27.28874 | 89.29945 | 16792 ft | 234 kts | 7° |
| 2025-12-29 14:33 | 27.31980 | 89.30559 | 15994 ft | 224 kts | 7° |
| 2025-12-29 14:33 | 27.33521 | 89.30660 | 15601 ft | 220 kts | 354° |
| 2025-12-29 14:33 | 27.36419 | 89.29699 | 14830 ft | 218 kts | 328° |
| 2025-12-29 14:34 | 27.40230 | 89.26866 | 13839 ft | 216 kts | 325° |
| 2025-12-29 14:35 | 27.43081 | 89.25705 | 13849 ft | 228 kts | 357° |
| 2025-12-29 14:35 | 27.46111 | 89.26669 | 13718 ft | 235 kts | 32° |
| 2025-12-29 14:36 | 27.48373 | 89.29393 | 12378 ft | 238 kts | 62° |
| 2025-12-29 14:36 | 27.48812 | 89.32861 | 10914 ft | 222 kts | 108° |
| 2025-12-29 14:37 | 27.46888 | 89.35356 | 9478 ft | 211 kts | 146° |
| 2025-12-29 14:37 | 27.45745 | 89.36294 | 9089 ft | 198 kts | 138° |
| 2025-12-29 14:37 | 27.44192 | 89.38705 | 8751 ft | 185 kts | 117° |
| 2025-12-29 14:38 | 27.42005 | 89.41622 | 7821 ft | 164 kts | 167° |
| 2025-12-29 14:39 | 27.40012 | 89.42664 | 7359 ft | 122 kts | 150° |
| 2025-12-29 14:39 | 27.39437 | 89.43000 | 7359 ft | 8 kts | 231° |
| 2025-12-29 14:40 | 27.39472 | 89.42903 | 7356 ft | 8 kts | 330° |
| 2025-12-29 14:40 | 27.39559 | 89.42849 | 7356 ft | 10 kts | 332° |
| 2025-12-29 14:41 | 27.39826 | 89.42680 | 7355 ft | 26 kts | 329° |
| 2025-12-29 14:41 | 27.39987 | 89.42577 | 7354 ft | 27 kts | 330° |
| 2025-12-29 14:41 | 27.40318 | 89.42366 | 7354 ft | 28 kts | 332° |
| 2025-12-29 14:42 | 27.40525 | 89.42153 | 7357 ft | 0 kts | 238° |